Latest Coastal Weather Observations for Cape Naturaliste

IDW60701

Issued at 8:25 pm WST Thursday 2 October 2014 (issued every 10 minutes, with the page automatically refreshed every 10 minutes)

About coastal observations | Map of coastal stations | Coastal observations for WA | Marine services | Other Formats
Station Details ID: 009519 Name: CAPE NATURALISTE Lat: -33.54 Lon: 115.02 Height: 109.0 m
Data from the previous 72 hours. | See also: Recent months at Cape Naturaliste
Date/Time
WST
Temp

°C
Wind Pressure Rain
since 9am
mm
Weather Cloud Vis
km
Sea
Height
m
Swell
Dir
 
Speed
knots
Gust
knots
hPa Trend Height
m
Period
s
Dir
02/08:00pm 15.7 SSW 16 23 1016.5 - 0.0 - - - - - - -
02/07:44pm 15.7 SSW 15 25 1016.3 - 0.0 - - - - - - -
02/07:30pm 15.6 SSW 16 23 1016.0 - 0.0 - - - - - - -
02/07:00pm 15.8 SSW 15 21 1015.6 - 0.0 - - - - - - -
02/06:30pm 16.0 SSW 16 23 1015.1 - 0.0 - - - - - - -
02/06:00pm 16.7 SSW 17 23 1014.5 - 0.0 - - - - - - -
02/05:30pm 17.2 SSW 18 23 1013.9 - 0.0 - - - - - - -
02/05:00pm 17.5 SSW 19 26 1013.5 - 0.0 - - - - - - -
02/04:30pm 18.1 SSW 21 27 1013.2 - 0.0 - - - - - - -
02/04:00pm 18.5 SSW 19 27 1013.0 - 0.0 - - - - - - -
02/03:30pm 18.5 SSW 18 25 1012.9 - 0.0 - - - - - - -
02/03:00pm 18.1 SSW 18 23 1012.4 - 0.0 - - - - - - -
02/02:30pm 18.5 SSW 17 23 1012.1 - 0.0 - - - - - - -
02/02:00pm 19.2 SSW 16 20 1012.1 - 0.0 - - - - - - -
02/01:30pm 20.4 SSW 13 18 1011.9 - 0.0 - - - - - - -
02/01:00pm 21.7 SW 12 18 1012.0 - 0.0 - - - - - - -
02/12:30pm 22.4 W 8 11 1012.5 - 0.0 - - - - - - -
02/12:00pm 23.4 NNW 9 11 1012.7 - 0.0 - - - - - - -
02/11:30am 23.2 NW 7 9 1012.3 - 0.0 - - - - - - -
02/11:00am 23.3 NW 7 9 1012.3 - 0.0 - - - - - - -
02/10:30am 23.2 WNW 8 10 1012.5 - 0.0 - - - - - - -
02/10:00am 23.2 NNW 6 9 1012.4 - 0.0 - - - - - - -
02/09:30am 22.5 NNW 7 9 1012.6 - 0.0 - - - - - - -
02/09:00am 22.1 N 7 9 1012.8 - 0.0 - - - - - - -
02/08:30am 21.8 NE 5 7 1012.7 - 0.0 - - - - - - -
02/08:00am 21.0 NE 7 10 1012.8 - 0.0 - - - - - - -
02/07:30am 20.2 E 11 14 1012.7 - 0.0 - - - - - - -
02/07:00am 19.2 E 16 21 1012.1 - 0.0 - - - - - - -
02/06:30am 18.8 E 15 17 1012.1 - 0.0 - - - - - - -
02/06:00am 18.7 E 14 16 1011.9 - 0.0 - - - - - - -
02/05:30am 18.8 E 13 15 1012.1 - 0.0 - - - - - - -
02/05:00am 19.2 E 15 18 1011.9 - 0.0 - - - - - - -
02/04:30am 19.0 E 15 21 1012.0 - 0.0 - - - - - - -
02/04:00am 19.0 E 17 22 1012.0 - 0.0 - - - - - - -
02/03:30am 19.0 E 16 19 1011.9 - 0.0 - - - - - - -
02/03:00am 19.3 E 17 19 1012.0 - 0.0 - - - - - - -
02/02:30am 19.4 E 17 21 1012.2 - 0.0 - - - - - - -
02/02:00am 19.8 E 17 21 1012.4 - 0.0 - - - - - - -
02/01:30am 20.0 E 17 22 1012.7 - 0.0 - - - - - - -
02/01:00am 21.1 ENE 21 26 1012.9 - 0.0 - - - - - - -
02/12:30am 21.5 ENE 24 30 1013.3 - 0.0 - - - - - - -
02/12:00am 22.3 ENE 18 26 1013.5 - 0.0 - - - - - - -
 
Date/Time
WST
Temp

°C
Wind Pressure Rain
since 9am
mm
Weather Cloud Vis
km
Sea
Height
m
Swell
Dir
 
Speed
knots
Gust
knots
hPa Trend Height
m
Period
s
Dir
01/11:30pm 21.3 ENE 15 19 1013.9 - 0.0 - - - - - - -
01/11:00pm 20.8 E 14 18 1014.2 - 0.0 - - - - - - -
01/10:30pm 20.8 E 16 20 1014.6 - 0.0 - - - - - - -
01/10:00pm 21.3 E 15 17 1014.9 - 0.0 - - - - - - -
01/09:30pm 21.6 ESE 14 18 1015.3 - 0.0 - - - - - - -
01/09:00pm 21.3 ESE 12 15 1015.2 - 0.0 - - - - - - -
01/08:30pm 21.4 ESE 11 13 1015.4 - 0.0 - - - - - - -
01/08:00pm 21.2 ESE 10 12 1015.3 - 0.0 - - - - - - -
01/07:30pm 21.5 ESE 10 12 1015.5 - 0.0 - - - - - - -
01/07:00pm 21.6 SE 9 11 1015.1 - 0.0 - - - - - - -
01/06:30pm 21.4 SE 8 11 1015.1 - 0.0 - - - - - - -
01/06:00pm 20.9 S 5 7 1015.0 - 0.0 - - - - - - -
01/05:30pm 21.0 S 5 6 1015.3 - 0.0 - - - - - - -
01/05:00pm 20.7 SW 3 5 1015.6 - 0.0 - - - - - - -
01/04:30pm 21.1 SW 6 7 1015.7 - 0.0 - - - - - - -
01/04:00pm 23.4 SSW 6 8 1015.6 - 0.0 - - - - - - -
01/03:30pm 24.9 E 7 9 1015.6 - 0.0 - - - - - - -
01/03:00pm 24.5 E 9 13 1015.6 - 0.0 - - - - - - -
01/02:30pm 25.3 ESE 10 13 1015.9 - 0.0 - - - - - - -
01/02:00pm 24.4 ESE 11 14 1016.4 - 0.0 - - - - - - -
01/01:30pm 24.4 ESE 12 16 1016.8 - 0.0 - - - - - - -
01/01:00pm 24.0 ESE 11 15 1017.3 - 0.0 - - - - - - -
01/12:30pm 23.0 ESE 13 17 1017.8 - 0.0 - - - - - - -
01/12:00pm 22.5 E 13 18 1018.5 - 0.0 - - - - - - -
01/11:30am 21.7 E 14 19 1018.8 - 0.0 - - - - - - -
01/11:00am 20.6 E 14 18 1019.2 - 0.0 - - - - - - -
01/10:30am 19.9 E 15 17 1019.6 - 0.0 - - - - - - -
01/10:00am 19.0 ESE 15 19 1019.7 - 0.0 - - - - - - -
01/09:30am 18.2 ESE 15 19 1020.1 - 0.0 - - - - - - -
01/09:00am 17.1 ESE 16 21 1020.4 - 0.0 - - - - - - -
01/08:30am 16.2 ESE 17 22 1020.3 - 0.0 - - - - - - -
01/08:00am 15.3 ESE 18 22 1020.2 - 0.0 - - - - - - -
01/07:30am 14.5 ESE 18 24 1020.4 - 0.0 - - - - - - -
01/07:00am 12.5 ESE 14 17 1020.9 - 0.0 - - - - - - -
01/06:30am 11.3 ESE 15 19 1021.0 - 0.0 - - - - - - -
01/06:00am 10.8 ESE 16 19 1020.7 - 0.0 - - - - - - -
01/05:30am 10.8 SE 17 19 1020.4 - 0.0 - - - - - - -
01/05:00am 11.0 SE 17 19 1020.4 - 0.0 - - - - - - -
01/04:30am 11.1 SE 16 20 1020.5 - 0.0 - - - - - - -
01/04:00am 11.3 ESE 16 20 1020.5 - 0.0 - - - - - - -
01/03:30am 11.6 ESE 15 19 1020.8 - 0.0 - - - - - - -
01/03:00am 11.9 SE 13 18 1020.9 - 0.0 - - - - - - -
01/02:30am 12.5 SE 13 17 1021.1 - 0.0 - - - - - - -
01/02:00am 13.2 SE 12 15 1021.3 - 0.0 - - - - - - -
01/01:30am 13.2 SE 12 14 1021.6 - 0.0 - - - - - - -
01/01:00am 12.9 SE 10 13 1021.9 - 0.0 - - - - - - -
01/12:30am 12.9 SE 10 13 1022.2 - 0.0 - - - - - - -
01/12:00am 12.7 SE 10 12 1022.3 - 0.0 - - - - - - -
 
Date/Time
WST
Temp

°C
Wind Pressure Rain
since 9am
mm
Weather Cloud Vis
km
Sea
Height
m
Swell
Dir
 
Speed
knots
Gust
knots
hPa Trend Height
m
Period
s
Dir
30/11:30pm 12.7 SE 10 12 1022.7 - 0.0 - - - - - - -
30/11:00pm 12.4 SE 10 12 1022.8 - 0.0 - - - - - - -
30/10:30pm 12.6 SE 11 13 1022.9 - 0.0 - - - - - - -
30/10:00pm 12.8 SE 11 15 1023.0 - 0.0 - - - - - - -
30/09:30pm 13.1 SSE 10 14 1023.2 - 0.0 - - - - - - -
30/09:00pm 13.2 SSE 10 13 1023.3 - 0.0 - - - - - - -
30/08:30pm 13.3 SSE 10 13 1023.2 - 0.0 - - - - - - -
30/08:00pm 13.8 SSW 7 8 1023.1 - 0.0 - - - - - - -
30/07:30pm 14.4 SSW 8 11 1022.9 - 0.0 - - - - - - -
30/07:00pm 14.6 SSW 9 12 1022.7 - 0.0 - - - - - - -
30/06:30pm 14.8 SW 8 10 1022.6 - 0.0 - - - - - - -
30/06:00pm 15.7 SW 8 10 1022.5 - 0.0 - - - - - - -
30/05:30pm 16.9 SW 7 9 1022.3 - 0.0 - - - - - - -
30/05:00pm 17.6 SW 5 8 1022.2 - 0.0 - - - - - - -
30/04:30pm 17.9 W 4 7 1022.2 - 0.0 - - - - - - -
30/04:00pm 16.8 NNW 4 5 1022.3 - 0.0 - - - - - - -
30/03:30pm 17.9 N 4 6 1022.3 - 0.0 - - - - - - -
30/03:00pm 17.0 NE 6 7 1022.5 - 0.0 - - - - - - -
30/02:30pm 17.2 NE 6 8 1022.6 - 0.0 - - - - - - -
30/02:00pm 17.5 NE 9 11 1022.6 - 0.0 - - - - - - -
30/01:30pm 18.5 ENE 9 12 1022.6 - 0.0 - - - - - - -
30/01:00pm 17.6 ENE 9 11 1023.1 - 0.0 - - - - - - -
30/12:30pm 17.8 ENE 8 11 1023.4 - 0.0 - - - - - - -
30/12:00pm 18.2 E 8 9 1023.5 - 0.0 - - - - - - -
30/11:30am 17.0 ENE 7 10 1023.7 - 0.0 - - - - - - -
30/11:00am 16.5 E 7 10 1023.8 - 0.0 - - - - - - -
30/10:30am 16.3 E 7 9 1023.8 - 0.0 - - - - - - -
30/10:00am 16.0 ENE 8 11 1023.9 - 0.0 - - - - - - -
30/09:30am 17.4 E 8 11 1023.8 - 0.0 - - - - - - -
30/09:00am 16.5 E 9 11 1023.8 - 0.0 - - - - - - -
30/08:30am 16.7 E 9 12 1023.5 - 0.0 - - - - - - -
30/08:00am 16.4 SE 9 11 1023.2 - 0.0 - - - - - - -
30/07:30am 16.0 SE 9 11 1022.9 - 0.0 - - - - - - -
30/07:00am 14.0 SSE 8 11 1022.7 - 0.0 - - - - - - -
30/06:30am 11.7 SSE 7 9 1022.3 - 0.0 - - - - - - -
30/06:00am 11.8 SSE 7 8 1022.1 - 0.0 - - - - - - -
30/05:30am 12.0 SSE 7 9 1021.9 - 0.0 - - - - - - -
30/05:00am 11.6 SE 7 8 1021.8 - 0.0 - - - - - - -
30/04:30am 12.2 SE 7 8 1021.7 - 0.0 - - - - - - -
30/04:00am 12.7 S 7 9 1021.3 - 0.0 - - - - - - -
30/03:30am 13.0 SSE 8 11 1021.0 - 0.0 - - - - - - -
30/03:00am 14.1 SSW 10 15 1020.7 - 0.0 - - - - - - -
30/02:30am 14.3 S 9 12 1020.7 - 0.0 - - - - - - -
30/02:00am 14.5 SW 9 13 1020.7 - 0.0 - - - - - - -
30/01:30am 14.1 SSW 9 13 1020.8 - 0.0 - - - - - - -
30/01:00am 13.7 SW 8 11 1020.7 - 0.0 - - - - - - -
30/12:30am 13.9 SW 7 11 1020.8 - 0.0 - - - - - - -
30/12:00am 13.7 WSW 11 15 1020.8 - 0.0 - - - - - - -
 
Date/Time
WST
Temp

°C
Wind Pressure Rain
since 9am
mm
Weather Cloud Vis
km
Sea
Height
m
Swell
Dir
 
Speed
knots
Gust
knots
hPa Trend Height
m
Period
s
Dir
29/11:30pm 14.2 SW 12 18 1020.7 - 0.0 - - - - - - -
29/11:00pm 14.3 SSW 12 17 1020.8 - 0.0 - - - - - - -
29/10:30pm 14.0 SSW 11 18 1020.9 - 0.0 - - - - - - -
29/10:00pm 13.9 SSW 10 14 1020.9 - 0.0 - - - - - - -
29/09:30pm 14.3 SW 11 15 1020.8 - 0.0 - - - - - - -
29/09:00pm 14.5 SSW 12 18 1020.6 - 0.0 - - - - - - -
29/08:30pm 14.8 SW 11 15 1020.7 - 0.0 - - - - - - -

Other Formats:

Comma delimited format used in spreadsheet applications
http://www.bom.gov.au/fwo/IDW60701/IDW60701.94600.axf

JavaScript Object Notation format (JSON) in row-major order
http://www.bom.gov.au/fwo/IDW60701/IDW60701.94600.json